Time;durP1;ratioP1;P1;durP2;ratioP2;P2;SDS_P1;SDS_P2;PMS_P1;PMS_P2;Temp;Humidity;BMP_temperature;BMP_pressure;BME280_temperature;BME280_humidity;BME280_pressure;Samples;Min_cycle;Max_cycle;Signal;HPM_P1;HPM_P2
2021/07/11 00:00:33;;;;;;;4.95;3.28;;;;;;;18.44;48.01;101142.38;3585716;39;20126;-70
2021/07/11 00:03:02;;;;;;;5.20;3.15;;;;;;;18.41;47.36;101133.56;3588217;40;20084;-70
2021/07/11 00:05:30;;;;;;;5.82;3.40;;;;;;;18.41;47.92;101134.44;3586288;39;20057;-70
2021/07/11 00:07:59;;;;;;;5.32;3.33;;;;;;;18.41;47.76;101120.59;3588599;40;20048;-70
2021/07/11 00:10:27;;;;;;;4.97;3.30;;;;;;;18.40;47.95;101124.41;3585714;39;20450;-70
2021/07/11 00:12:55;;;;;;;5.25;3.10;;;;;;;18.40;47.49;101124.41;3603030;39;20121;-70
2021/07/11 00:15:26;;;;;;;4.95;3.17;;;;;;;18.41;47.72;101126.13;3588691;40;20390;-70
2021/07/11 00:17:59;;;;;;;4.43;2.88;;;;;;;18.43;47.70;101132.34;3577225;40;20049;-70
2021/07/11 00:20:28;;;;;;;4.68;2.92;;;;;;;18.39;48.08;101128.19;3583922;39;20067;-70
2021/07/11 00:22:57;;;;;;;4.93;3.28;;;;;;;18.41;48.19;101136.34;3581458;40;20507;-70
2021/07/11 00:25:25;;;;;;;5.20;3.35;;;;;;;18.40;48.39;101129.06;3578096;40;20388;-70
2021/07/11 00:27:56;;;;;;;5.38;3.17;;;;;;;18.40;47.91;101132.69;3596008;40;20048;-70
2021/07/11 00:30:26;;;;;;;5.07;3.38;;;;;;;18.40;48.34;101134.59;3595828;39;20056;-70
2021/07/11 00:32:56;;;;;;;6.32;3.70;;;;;;;18.41;48.42;101136.34;3595303;39;20045;-70
2021/07/11 00:35:24;;;;;;;6.40;3.45;;;;;;;18.40;47.93;101137.38;3588165;40;20047;-70
2021/07/11 00:37:54;;;;;;;5.18;3.28;;;;;;;18.40;47.86;101143.78;3587442;40;20134;-70
2021/07/11 00:40:22;;;;;;;5.32;3.00;;;;;;;18.38;48.28;101140.31;3586995;40;20397;-70
2021/07/11 00:42:51;;;;;;;5.35;3.45;;;;;;;18.39;48.17;101138.41;3581581;40;20044;-70
2021/07/11 00:45:20;;;;;;;4.85;3.00;;;;;;;18.38;48.29;101140.31;3588280;40;20059;-70
2021/07/11 00:47:50;;;;;;;4.32;2.97;;;;;;;18.39;48.46;101141.19;3581626;40;20040;-70
2021/07/11 00:50:20;;;;;;;4.78;3.13;;;;;;;18.40;48.39;101141.00;3576633;40;20049;-70
2021/07/11 00:52:54;;;;;;;4.70;3.47;;;;;;;18.38;47.90;101150.53;3577446;40;20391;-70
2021/07/11 00:55:31;;;;;;;5.78;3.33;;;;;;;18.38;47.77;101156.94;3591871;39;20093;-70
2021/07/11 00:57:59;;;;;;;6.97;3.58;;;;;;;18.38;47.97;101165.25;3585652;40;20051;-70
2021/07/11 01:00:39;;;;;;;6.38;3.75;;;;;;;18.39;48.80;101161.44;3576361;40;20048;-70
2021/07/11 01:03:11;;;;;;;5.45;3.70;;;;;;;18.38;48.68;101162.47;3582553;40;20049;-70
2021/07/11 01:05:47;;;;;;;5.80;3.50;;;;;;;18.39;48.34;101158.66;3575938;39;20052;-70
2021/07/11 01:08:24;;;;;;;5.75;3.63;;;;;;;18.40;48.66;101160.41;3584308;40;20178;-70
2021/07/11 01:11:01;;;;;;;6.15;3.88;;;;;;;18.40;49.01;101156.75;3583218;39;20060;-70
2021/07/11 01:13:32;;;;;;;5.28;3.58;;;;;;;18.38;48.64;101162.47;3586939;40;20044;-70
2021/07/11 01:16:05;;;;;;;5.55;3.63;;;;;;;18.38;48.55;101167.16;3581999;39;20043;-70
2021/07/11 01:18:38;;;;;;;5.45;3.40;;;;;;;18.35;48.34;101171.16;3585540;40;20044;-70
2021/07/11 01:21:12;;;;;;;4.97;3.35;;;;;;;18.37;48.55;101169.06;3587388;39;20052;-70
2021/07/11 01:23:54;;;;;;;5.18;3.67;;;;;;;18.38;49.34;101181.88;3587571;40;20433;-70
2021/07/11 01:26:26;;;;;;;5.88;3.97;;;;;;;18.36;49.03;101172.84;3585008;39;20044;-70
2021/07/11 01:28:57;;;;;;;6.10;3.90;;;;;;;18.34;48.55;101169.41;3585754;40;20052;-70
2021/07/11 01:31:29;;;;;;;5.65;3.95;;;;;;;18.35;48.87;101176.69;3589407;39;20416;-70
2021/07/11 01:33:59;;;;;;;5.43;3.65;;;;;;;18.36;49.04;101166.47;3593529;39;20128;-69
2021/07/11 01:36:29;;;;;;;5.95;3.75;;;;;;;18.36;48.80;101174.78;3581390;39;20048;-70
2021/07/11 01:38:59;;;;;;;5.72;3.75;;;;;;;18.35;48.73;101171.16;3596001;39;20048;-70
2021/07/11 01:41:45;;;;;;;6.07;3.33;;;;;;;18.35;49.46;101167.53;3583470;40;20049;-69
2021/07/11 01:44:17;;;;;;;5.07;3.35;;;;;;;18.34;48.60;101166.66;3593531;39;20134;-70
2021/07/11 01:46:48;;;;;;;5.47;3.58;;;;;;;18.34;49.24;101172.19;3585721;40;20051;-70
2021/07/11 01:49:18;;;;;;;6.07;3.72;;;;;;;18.34;49.47;101163.88;3586945;40;20060;-70
2021/07/11 01:51:53;;;;;;;5.45;3.60;;;;;;;18.35;49.36;101168.38;3589896;40;20094;-70
2021/07/11 01:54:25;;;;;;;7.10;3.40;;;;;;;18.33;49.16;101161.28;3586570;40;20049;-70
2021/07/11 01:56:54;;;;;;;6.10;3.72;;;;;;;18.37;48.99;101166.28;3584318;40;20313;-70
2021/07/11 01:59:24;;;;;;;6.25;4.18;;;;;;;18.36;49.09;101164.53;3585634;40;20064;-70
2021/07/11 02:02:01;;;;;;;6.50;4.43;;;;;;;18.37;49.72;101169.06;3585786;39;20044;-70
2021/07/11 02:04:31;;;;;;;6.95;3.97;;;;;;;18.38;48.99;101167.16;3585759;40;20048;-70
2021/07/11 02:07:00;;;;;;;5.40;3.60;;;;;;;18.39;49.36;101166.13;3584821;40;20048;-70
2021/07/11 02:09:28;;;;;;;5.75;3.88;;;;;;;18.37;49.23;101163.50;3587496;40;20294;-70
2021/07/11 02:12:06;;;;;;;6.97;4.75;;;;;;;18.40;49.33;101167.84;3596398;39;20389;-70
2021/07/11 02:14:49;;;;;;;5.05;3.28;;;;;;;18.39;49.00;101166.97;3586950;40;20102;-70
2021/07/11 02:17:21;;;;;;;7.47;4.85;;;;;;;18.42;49.63;101165.78;3593367;39;20036;-70
2021/07/11 02:20:02;;;;;;;;;;;;;;;18.13;49.92;101160.78;3582473;40;20044;-71
2021/07/11 02:22:40;;;;;;;7.90;4.97;;;;;;;18.39;49.04;101158.66;3581613;40;19940;-70
2021/07/11 02:25:11;;;;;;;9.43;5.75;;;;;;;18.45;49.64;101162.63;3578130;40;20371;-70
2021/07/11 02:27:45;;;;;;;11.38;6.30;;;;;;;18.45;49.75;101160.72;3577990;40;20393;-70
2021/07/11 02:30:16;;;;;;;;;;;;;;;18.18;49.79;101150.06;3586023;40;20410;-70
2021/07/11 02:32:48;;;;;;;8.15;5.47;;;;;;;18.44;49.60;101147.06;3575641;40;19953;-70
2021/07/11 02:35:18;;;;;;;8.77;6.07;;;;;;;18.48;49.35;101150.34;3584946;40;20040;-70
2021/07/11 02:37:50;;;;;;;9.98;6.25;;;;;;;18.47;49.59;101143.06;3576665;39;20040;-70
2021/07/11 02:40:23;;;;;;;8.90;6.47;;;;;;;18.48;49.25;101147.56;3577183;40;20320;-70
2021/07/11 02:42:57;;;;;;;10.82;6.53;;;;;;;18.49;49.72;101152.06;3593106;39;20126;-70
2021/07/11 02:45:28;;;;;;;9.57;6.85;;;;;;;18.47;49.50;101154.16;3575235;39;20068;-70
2021/07/11 02:48:01;;;;;;;11.23;6.78;;;;;;;18.48;49.73;101158.66;3577887;40;20059;-70
2021/07/11 02:50:35;;;;;;;8.75;6.32;;;;;;;18.45;49.33;101157.09;3595283;39;20063;-70
2021/07/11 02:53:05;;;;;;;10.23;6.63;;;;;;;18.45;49.00;101151.53;3586856;40;20060;-70
2021/07/11 02:55:37;;;;;;;8.27;5.72;;;;;;;18.45;49.48;101166.25;3577805;40;20075;-70
2021/07/11 02:58:11;;;;;;;7.72;5.82;;;;;;;18.45;49.85;101163.50;3598430;39;20048;-70
2021/07/11 03:00:43;;;;;;;9.23;5.90;;;;;;;18.43;49.45;101167.50;3593186;39;20048;-70
2021/07/11 03:03:18;;;;;;;8.55;6.18;;;;;;;18.42;49.28;101165.78;3583650;40;20041;-70
2021/07/11 03:05:58;;;;;;;7.20;5.45;;;;;;;18.40;49.02;101168.72;3585646;39;20040;-70
2021/07/11 03:08:32;;;;;;;9.77;6.50;;;;;;;18.41;49.42;101170.44;3586297;40;20053;-70
2021/07/11 03:11:11;;;;;;;8.27;5.18;;;;;;;18.41;48.84;101170.44;3584225;39;20045;-70
2021/07/11 03:14:04;;;;;;;8.43;5.53;;;;;;;18.42;48.82;101174.09;3583578;40;20495;-70
2021/07/11 03:16:53;;;;;;;7.10;5.25;;;;;;;18.41;49.38;101166.81;3593446;39;20117;-70
2021/07/11 03:19:45;;;;;;;9.15;6.53;;;;;;;18.39;49.25;101171.66;3591443;39;20063;-70
2021/07/11 03:22:36;;;;;;;8.05;5.80;;;;;;;18.39;49.27;101178.06;3584465;40;20161;-70
2021/07/11 03:25:26;;;;;;;9.38;6.65;;;;;;;18.34;49.50;101183.28;3582923;40;20409;-70
2021/07/11 03:28:15;;;;;;;8.32;5.63;;;;;;;18.36;48.99;101183.09;3595214;39;20052;-70
2021/07/11 03:31:08;;;;;;;9.77;7.13;;;;;;;18.37;49.63;101191.22;3581398;39;20036;-70
2021/07/11 03:33:57;;;;;;;;;;;;;;;18.04;49.88;101189.50;3585886;40;20084;-70
2021/07/11 03:36:50;;;;;;;7.97;5.53;;;;;;;18.30;49.02;101192.09;3591637;39;20811;-70
2021/07/11 03:39:44;;;;;;;9.60;5.85;;;;;;;18.32;49.39;101196.41;3587500;40;20049;-70
2021/07/11 03:42:40;;;;;;;9.82;6.90;;;;;;;18.33;49.18;101200.06;3590597;39;20028;-70
2021/07/11 03:45:23;;;;;;;10.00;6.30;;;;;;;18.33;49.63;101202.81;3581442;40;20141;-70
2021/07/11 03:48:17;;;;;;;9.35;6.90;;;;;;;18.35;49.42;101212.69;3583304;40;20040;-70
2021/07/11 03:51:07;;;;;;;8.93;5.93;;;;;;;18.33;48.92;101205.59;3583737;39;20048;-70
2021/07/11 03:53:57;;;;;;;9.10;6.60;;;;;;;18.35;49.18;101207.16;3586688;40;20048;-70
2021/07/11 03:56:46;;;;;;;9.57;6.68;;;;;;;18.36;49.60;101206.09;3586803;40;20393;-69
2021/07/11 03:59:35;;;;;;;8.68;6.35;;;;;;;18.37;49.49;101212.50;3591144;40;20304;-70
2021/07/11 04:02:19;;;;;;;8.80;6.55;;;;;;;18.36;49.68;101216.34;3584945;40;20053;-70
2021/07/11 04:05:09;;;;;;;8.93;5.85;;;;;;;18.38;49.38;101220.63;3585998;40;20129;-70
2021/07/11 04:08:00;;;;;;;8.60;6.32;;;;;;;18.39;49.45;101221.50;3582060;40;20041;-70
2021/07/11 04:10:48;;;;;;;9.30;6.72;;;;;;;18.37;49.64;101218.91;3586086;39;20048;-70
2021/07/11 04:13:37;;;;;;;10.23;6.15;;;;;;;18.39;49.28;101222.38;3588130;40;20100;-70
2021/07/11 04:16:29;;;;;;;10.55;7.43;;;;;;;18.40;49.72;101221.34;3585662;39;20371;-70
2021/07/11 04:19:23;;;;;;;11.10;7.15;;;;;;;18.39;49.92;101219.59;3590451;39;20060;-70
2021/07/11 04:22:16;;;;;;;10.50;6.93;;;;;;;18.38;49.91;101225.31;3592719;39;20045;-70
2021/07/11 04:25:05;;;;;;;9.57;6.90;;;;;;;18.33;49.26;101224.97;3585226;40;20047;-70
2021/07/11 04:27:55;;;;;;;8.98;6.65;;;;;;;18.35;49.69;101220.16;3581952;40;20048;-70
2021/07/11 04:30:43;;;;;;;9.10;6.78;;;;;;;18.32;49.15;101218.56;3585441;39;20068;-70
2021/07/11 04:33:33;;;;;;;9.20;6.63;;;;;;;18.33;49.36;101216.69;3591261;40;20044;-70
2021/07/11 04:36:21;;;;;;;9.93;6.78;;;;;;;18.29;49.58;101209.75;3586195;39;20044;-70
2021/07/11 04:39:00;;;;;;;10.68;7.57;;;;;;;18.31;49.65;101204.91;3589506;39;20398;-70
2021/07/11 04:41:48;;;;;;;11.18;7.28;;;;;;;18.28;49.75;101202.47;3587456;39;20040;-70
2021/07/11 04:44:36;;;;;;;9.45;6.68;;;;;;;18.26;49.42;101204.56;3587492;40;20056;-70
2021/07/11 04:47:28;;;;;;;10.27;7.30;;;;;;;18.24;49.58;101210.28;3586428;39;20043;-70
2021/07/11 04:50:16;;;;;;;8.32;5.63;;;;;;;18.23;49.49;101200.22;3588227;40;20056;-70
2021/07/11 04:53:05;;;;;;;9.32;6.10;;;;;;;18.23;49.39;101207.69;3588993;39;20121;-70
2021/07/11 04:55:55;;;;;;;9.70;6.43;;;;;;;18.22;50.08;101206.81;3584208;40;20082;-70
2021/07/11 04:58:43;;;;;;;8.68;6.40;;;;;;;18.20;50.19;101206.09;3589015;40;20064;-70
2021/07/11 05:01:31;;;;;;;9.63;6.82;;;;;;;18.22;49.94;101205.94;3586542;40;20025;-70
2021/07/11 05:04:20;;;;;;;9.98;6.88;;;;;;;18.20;50.01;101199.69;3587920;40;20060;-70
2021/07/11 05:07:08;;;;;;;9.27;6.10;;;;;;;18.19;49.60;101201.63;3588012;39;20309;-70
2021/07/11 05:09:56;;;;;;;9.48;6.82;;;;;;;18.20;50.11;101206.09;3586269;40;20402;-70
2021/07/11 05:12:45;;;;;;;9.75;6.72;;;;;;;18.22;50.12;101203.16;3590058;40;20313;-70
2021/07/11 05:15:34;;;;;;;12.80;7.93;;;;;;;18.20;50.33;101200.56;3588131;40;20056;-70
2021/07/11 05:18:22;;;;;;;10.43;7.30;;;;;;;18.21;50.20;101198.66;3585718;40;20057;-70
2021/07/11 05:21:10;;;;;;;10.73;8.05;;;;;;;18.20;50.14;101192.25;3584334;39;20053;-70
2021/07/11 05:23:58;;;;;;;11.50;7.22;;;;;;;18.20;50.20;101189.50;3584806;40;20125;-70
2021/07/11 05:26:46;;;;;;;9.63;6.82;;;;;;;18.20;50.08;101192.25;3586862;40;20046;-70
2021/07/11 05:29:36;;;;;;;13.20;8.30;;;;;;;18.22;50.25;101187.44;3587508;40;20064;-70
2021/07/11 05:32:24;;;;;;;10.57;7.13;;;;;;;18.21;50.22;101190.38;3587170;39;20044;-70
2021/07/11 05:35:13;;;;;;;12.90;7.65;;;;;;;18.22;49.83;101192.09;3587806;40;20033;-70
2021/07/11 05:38:01;;;;;;;12.90;7.70;;;;;;;18.22;50.12;101195.72;3587035;40;20152;-70
2021/07/11 05:40:50;;;;;;;11.57;7.50;;;;;;;18.23;50.55;101204.91;3580144;39;20312;-70
2021/07/11 05:43:38;;;;;;;11.90;7.85;;;;;;;18.23;49.97;101208.53;3590571;40;20345;-71
2021/07/11 05:46:28;;;;;;;13.75;7.85;;;;;;;18.26;50.29;101210.09;3586216;39;20124;-70
2021/07/11 05:49:17;;;;;;;11.75;8.10;;;;;;;18.25;50.16;101220.31;3586871;40;20057;-70
2021/07/11 05:52:05;;;;;;;13.77;8.27;;;;;;;18.27;50.35;101217.38;3585899;39;20037;-70
2021/07/11 05:54:53;;;;;;;12.45;8.35;;;;;;;18.27;50.05;101211.84;3587839;40;20052;-70
2021/07/11 05:57:41;;;;;;;11.25;7.78;;;;;;;18.29;50.44;101215.28;3585093;39;20126;-70
2021/07/11 06:00:29;;;;;;;12.77;8.50;;;;;;;18.29;49.97;101227.22;3585509;40;20415;-71
2021/07/11 06:03:20;;;;;;;11.88;7.22;;;;;;;18.33;50.35;101227.75;3594875;40;20046;-70
2021/07/11 06:06:08;;;;;;;14.20;8.80;;;;;;;18.33;50.61;101230.53;3586811;39;20044;-70
2021/07/11 06:08:56;;;;;;;13.10;8.50;;;;;;;18.36;49.99;101217.16;3595942;40;20068;-70
2021/07/11 06:11:44;;;;;;;14.13;8.77;;;;;;;18.38;50.62;101217.88;3602789;39;20098;-70
2021/07/11 06:14:32;;;;;;;11.32;7.80;;;;;;;18.40;50.01;101210.25;3598086;40;20054;-70
2021/07/11 06:17:21;;;;;;;13.05;8.23;;;;;;;18.43;50.04;101217.38;3593122;39;20052;-70
2021/07/11 06:20:12;;;;;;;15.02;9.63;;;;;;;18.48;50.22;101220.47;3588038;40;20060;-70
2021/07/11 06:23:00;;;;;;;14.52;9.23;;;;;;;18.47;50.18;101229.81;3587511;40;20091;-70
2021/07/11 06:25:48;;;;;;;14.40;9.30;;;;;;;18.49;50.11;101229.63;3586884;40;20041;-71
2021/07/11 06:28:36;;;;;;;12.80;7.93;;;;;;;18.50;50.49;101240.56;3588198;40;20052;-70
2021/07/11 06:31:25;;;;;;;13.40;8.70;;;;;;;18.51;50.16;101246.97;3587324;39;20061;-70
2021/07/11 06:34:13;;;;;;;15.52;9.82;;;;;;;18.51;50.50;101242.28;3579295;40;20130;-70
2021/07/11 06:37:03;;;;;;;15.32;9.50;;;;;;;18.54;50.25;101241.91;3578000;40;20381;-70
2021/07/11 06:39:52;;;;;;;13.55;8.82;;;;;;;18.53;50.67;101236.53;3578056;40;20045;-71
2021/07/11 06:42:40;;;;;;;13.50;9.02;;;;;;;18.53;50.14;101250.41;3593812;39;20044;-70
2021/07/11 06:45:28;;;;;;;14.07;8.73;;;;;;;18.54;50.30;101252.13;3597123;39;20423;-70
2021/07/11 06:48:17;;;;;;;16.45;10.60;;;;;;;18.53;50.25;101248.50;3594356;40;20068;-70
2021/07/11 06:51:05;;;;;;;15.15;10.15;;;;;;;18.54;50.12;101254.91;3589488;39;20032;-70
2021/07/11 06:53:55;;;;;;;14.93;9.35;;;;;;;18.55;50.28;101257.50;3575273;40;20130;-70
2021/07/11 06:56:23;;;;;;;13.30;8.57;;;;;;;18.53;50.36;101265.13;3567304;40;20298;-70
2021/07/11 06:58:52;;;;;;;15.30;9.38;;;;;;;18.55;50.07;101262.19;3576094;40;20393;-70
2021/07/11 07:01:23;;;;;;;17.88;10.15;;;;;;;18.55;50.64;101259.41;3576728;40;20087;-70
2021/07/11 07:03:51;;;;;;;16.83;10.77;;;;;;;18.55;50.20;101256.63;3576915;40;20066;-70
2021/07/11 07:06:20;;;;;;;16.27;10.60;;;;;;;18.56;50.66;101258.38;3576632;40;20126;-71
2021/07/11 07:08:49;;;;;;;15.73;10.93;;;;;;;18.56;50.44;101262.00;3577596;40;20061;-70
2021/07/11 07:11:19;;;;;;;17.83;11.20;;;;;;;18.58;50.55;101261.84;3575260;40;20050;-70
2021/07/11 07:13:47;;;;;;;19.80;11.95;;;;;;;18.57;50.52;101265.66;3577498;40;20075;-71
2021/07/11 07:16:16;;;;;;;14.40;9.43;;;;;;;18.57;50.30;101254.56;3575580;40;20290;-70
2021/07/11 07:18:44;;;;;;;16.67;10.27;;;;;;;18.58;50.36;101265.47;3585822;40;20462;-70
2021/07/11 07:21:13;;;;;;;14.27;8.95;;;;;;;18.59;50.18;101260.81;3575768;40;20033;-70
2021/07/11 07:23:41;;;;;;;19.95;12.07;;;;;;;18.60;50.72;101257.00;3585146;40;20089;-70
2021/07/11 07:26:10;;;;;;;16.30;10.32;;;;;;;18.61;50.10;101267.88;3576591;40;20076;-70
2021/07/11 07:28:40;;;;;;;16.95;10.20;;;;;;;18.64;50.42;101274.97;3571808;40;20049;-70
2021/07/11 07:31:09;;;;;;;17.13;10.20;;;;;;;18.64;50.60;101274.97;3576659;40;20052;-69
2021/07/11 07:33:37;;;;;;;17.10;10.15;;;;;;;18.65;49.96;101273.94;3577191;40;20045;-70
2021/07/11 07:36:06;;;;;;;15.70;9.65;;;;;;;18.67;50.47;101282.97;3575702;39;20403;-70
2021/07/11 07:38:36;;;;;;;18.35;10.80;;;;;;;18.68;50.45;101277.25;3576471;40;20061;-70
2021/07/11 07:41:05;;;;;;;16.38;10.38;;;;;;;18.70;50.42;101277.91;3573394;40;20037;-71
2021/07/11 07:43:33;;;;;;;18.95;10.85;;;;;;;18.72;50.32;101291.59;3577086;40;20402;-71
2021/07/11 07:46:03;;;;;;;19.65;11.32;;;;;;;18.74;49.82;101287.63;3575119;40;20045;-71
2021/07/11 07:48:32;;;;;;;18.02;11.30;;;;;;;18.72;50.12;101291.59;3576053;40;20425;-71
2021/07/11 07:51:01;;;;;;;17.00;10.68;;;;;;;18.71;50.06;101282.41;3576245;40;20122;-70
2021/07/11 07:53:29;;;;;;;17.85;12.35;;;;;;;18.72;50.08;101291.59;3583644;40;20053;-71
2021/07/11 07:55:58;;;;;;;15.88;10.43;;;;;;;18.69;50.05;101287.25;3576079;40;20045;-71
2021/07/11 07:58:26;;;;;;;15.85;10.30;;;;;;;18.67;49.83;101285.72;3576116;40;20053;-71
2021/07/11 08:00:55;;;;;;;14.88;9.85;;;;;;;18.65;49.61;101296.97;3583745;39;20040;-71
2021/07/11 08:03:25;;;;;;;13.32;9.20;;;;;;;18.64;49.20;101297.16;3576256;40;20071;-71
2021/07/11 08:05:55;;;;;;;14.57;9.07;;;;;;;18.59;49.80;101299.59;3583571;40;20046;-71
2021/07/11 08:08:23;;;;;;;14.13;8.75;;;;;;;18.56;49.30;101294.38;3575496;40;20417;-71
2021/07/11 08:10:52;;;;;;;13.77;8.85;;;;;;;18.52;49.71;101291.13;3575942;40;20041;-71
2021/07/11 08:13:20;;;;;;;15.68;9.75;;;;;;;18.49;50.09;101302.53;3579608;40;20061;-71
2021/07/11 08:15:49;;;;;;;15.10;9.68;;;;;;;18.48;49.64;101302.69;3576802;40;20429;-73
2021/07/11 08:18:17;;;;;;;15.13;10.05;;;;;;;18.44;49.91;101305.81;3573843;40;20139;-71
2021/07/11 08:20:47;;;;;;;13.15;8.32;;;;;;;18.44;50.33;101307.75;3580098;39;20089;-71
2021/07/11 08:23:16;;;;;;;14.05;9.23;;;;;;;18.41;49.96;101305.31;3591283;40;20065;-71
2021/07/11 08:25:44;;;;;;;13.98;9.20;;;;;;;18.39;49.57;101315.69;3585100;40;20062;-71
2021/07/11 08:28:13;;;;;;;13.80;9.07;;;;;;;18.37;50.20;101313.09;3574517;40;20429;-71
2021/07/11 08:30:42;;;;;;;15.68;10.30;;;;;;;18.36;49.67;101311.34;3576089;40;20057;-71
2021/07/11 08:33:10;;;;;;;16.35;9.43;;;;;;;18.34;49.79;101319.00;3580894;40;20048;-71
2021/07/11 08:35:38;;;;;;;14.55;9.45;;;;;;;18.33;50.41;101321.91;3577629;40;20048;-71
2021/07/11 08:38:08;;;;;;;12.07;8.52;;;;;;;18.35;50.11;101317.94;3577515;40;20156;-71
2021/07/11 08:40:37;;;;;;;14.85;9.98;;;;;;;18.32;50.46;101318.28;3577615;40;20303;-71
2021/07/11 08:43:06;;;;;;;12.68;8.75;;;;;;;18.35;50.54;101320.72;3575677;40;20072;-71
2021/07/11 08:45:38;;;;;;;13.23;8.18;;;;;;;18.34;49.88;101326.44;3573962;39;20052;-71
2021/07/11 08:48:07;;;;;;;17.15;10.13;;;;;;;18.35;49.90;101330.94;3577187;40;20065;-71
2021/07/11 08:50:35;;;;;;;15.30;10.05;;;;;;;18.33;50.33;101313.63;3576556;39;20422;-72
2021/07/11 08:53:04;;;;;;;15.80;9.60;;;;;;;18.35;50.24;101315.19;3576382;40;20057;-72
2021/07/11 08:55:34;;;;;;;13.35;9.48;;;;;;;18.37;49.98;101310.31;3576626;40;20063;-72
2021/07/11 08:58:04;;;;;;;14.80;9.00;;;;;;;18.37;50.34;101312.22;3578175;40;20077;-72
2021/07/11 09:00:34;;;;;;;15.52;9.65;;;;;;;18.39;50.47;101307.38;3577776;40;20056;-72
2021/07/11 09:03:04;;;;;;;14.75;9.73;;;;;;;18.39;50.43;101312.91;3581603;40;20045;-72
2021/07/11 09:05:36;;;;;;;12.85;8.77;;;;;;;18.40;50.28;101303.56;3576653;39;20067;-72
2021/07/11 09:08:06;;;;;;;16.38;9.93;;;;;;;18.42;50.79;101319.00;3577416;40;20108;-71
2021/07/11 09:10:38;;;;;;;15.77;10.00;;;;;;;18.47;50.39;101309.28;3577126;40;20420;-71
2021/07/11 09:13:11;;;;;;;15.88;10.50;;;;;;;18.48;50.57;101308.25;3577980;40;20076;-72
2021/07/11 09:15:42;;;;;;;17.13;11.20;;;;;;;18.49;50.65;101310.84;3577355;40;20082;-71
2021/07/11 09:18:11;;;;;;;16.70;10.07;;;;;;;18.51;50.25;101307.91;3577918;40;20048;-72
2021/07/11 09:20:50;;;;;;;15.93;10.35;;;;;;;18.58;50.76;101308.94;3577145;40;20056;-72
2021/07/11 09:23:19;;;;;;;15.50;10.13;;;;;;;18.60;50.77;101315.19;3576389;40;20325;-71
2021/07/11 09:26:04;;;;;;;17.15;10.93;;;;;;;18.64;50.97;101314.66;3576984;40;20114;-72
2021/07/11 09:28:35;;;;;;;15.38;10.43;;;;;;;18.69;50.58;101316.91;3576924;40;20064;-71
2021/07/11 09:31:07;;;;;;;16.77;10.18;;;;;;;18.76;51.11;101312.41;3576648;40;20048;-72
2021/07/11 09:33:36;;;;;;;16.45;11.23;;;;;;;18.83;50.58;101318.13;3578993;40;20130;-72
2021/07/11 09:36:08;;;;;;;16.05;10.40;;;;;;;18.91;50.64;101307.03;3578596;39;20417;-72
2021/07/11 09:38:37;;;;;;;15.85;10.05;;;;;;;18.96;51.05;101307.34;3584306;40;20079;-72
2021/07/11 09:41:20;;;;;;;15.05;10.02;;;;;;;19.06;50.24;101319.13;3576618;40;20076;-72
2021/07/11 09:43:50;;;;;;;14.40;10.02;;;;;;;19.09;50.40;101316.88;3580881;40;20048;-71
2021/07/11 09:46:19;;;;;;;16.90;11.02;;;;;;;19.17;50.46;101313.22;3576669;40;20278;-71
2021/07/11 09:48:49;;;;;;;14.88;9.98;;;;;;;19.23;50.70;101304.16;3576557;40;20393;-71
2021/07/11 09:51:20;;;;;;;15.65;8.70;;;;;;;19.30;50.69;101301.53;3578092;40;20073;-68
2021/07/11 09:53:50;;;;;;;10.93;7.75;;;;;;;19.36;50.45;101303.59;3585199;40;20057;-72
2021/07/11 09:56:34;;;;;;;12.02;8.40;;;;;;;19.47;50.12;101301.28;3575537;39;20044;-71
2021/07/11 09:59:05;;;;;;;13.43;8.60;;;;;;;19.57;50.62;101303.91;3565760;40;20324;-71
2021/07/11 10:01:35;;;;;;;14.27;9.23;;;;;;;19.68;50.51;101303.47;3583245;39;20383;-72
2021/07/11 10:04:04;;;;;;;14.43;8.80;;;;;;;19.77;50.78;101305.16;3592466;40;20093;-72
2021/07/11 10:06:34;;;;;;;12.13;7.78;;;;;;;19.88;50.76;101304.75;3575733;40;20570;-72
2021/07/11 10:09:05;;;;;;;12.18;8.35;;;;;;;20.01;50.22;101306.09;3577558;40;20138;-71
2021/07/11 10:11:35;;;;;;;15.10;9.50;;;;;;;20.10;49.59;101302.19;3584872;39;20080;-72
2021/07/11 10:14:04;;;;;;;13.13;9.07;;;;;;;20.16;49.54;101304.25;3590451;40;20053;-72
2021/07/11 10:16:35;;;;;;;14.32;10.07;;;;;;;20.24;49.60;101299.53;3576196;40;20056;-72
2021/07/11 10:19:07;;;;;;;13.23;8.73;;;;;;;20.30;49.80;101301.56;3577514;40;20138;-72
2021/07/11 10:21:39;;;;;;;12.43;9.23;;;;;;;20.41;49.38;101307.72;3579893;40;20393;-71
2021/07/11 10:24:17;;;;;;;10.55;7.93;;;;;;;20.49;48.94;101302.09;3584349;40;20397;-71
2021/07/11 10:26:47;;;;;;;12.77;8.93;;;;;;;20.57;49.02;101302.03;3582030;39;20047;-71
2021/07/11 10:29:18;;;;;;;13.27;9.25;;;;;;;20.66;48.87;101310.13;3587770;40;20052;-71
2021/07/11 10:31:49;;;;;;;13.50;9.23;;;;;;;20.74;48.65;101311.94;3581367;39;20045;-71
2021/07/11 10:34:30;;;;;;;11.77;8.32;;;;;;;20.83;47.79;101313.56;3587820;40;20048;-72
2021/07/11 10:37:10;;;;;;;10.40;7.25;;;;;;;20.87;47.96;101316.84;3572425;40;20044;-68
2021/07/11 10:39:38;;;;;;;11.45;7.93;;;;;;;20.90;48.31;101320.16;3576883;40;20057;-71
2021/07/11 10:42:10;;;;;;;10.38;7.50;;;;;;;21.00;47.83;101320.72;3579255;40;20077;-71
2021/07/11 10:44:39;;;;;;;9.63;7.20;;;;;;;21.02;47.40;101315.84;3575370;40;20142;-71
2021/07/11 10:47:08;;;;;;;9.90;7.38;;;;;;;21.08;47.42;101325.34;3571023;40;20037;-71
2021/07/11 10:49:50;;;;;;;8.38;6.60;;;;;;;21.14;47.20;101327.38;3576020;40;20059;-71
2021/07/11 10:52:24;;;;;;;8.50;6.80;;;;;;;21.18;46.89;101325.06;3577744;39;20053;-71
2021/07/11 10:54:53;;;;;;;8.65;6.60;;;;;;;21.21;47.43;101319.13;3576529;40;20064;-71
2021/07/11 10:57:33;;;;;;;7.97;6.43;;;;;;;21.28;46.63;101326.53;3584457;39;20045;-72
2021/07/11 11:00:13;;;;;;;9.68;7.00;;;;;;;21.33;46.22;101325.94;3582387;40;20360;-72
2021/07/11 11:02:45;;;;;;;8.43;6.63;;;;;;;21.34;46.56;101328.53;3571092;40;20049;-71
2021/07/11 11:05:16;;;;;;;9.25;6.28;;;;;;;21.35;46.50;101327.47;3576450;40;20056;-72
2021/07/11 11:07:48;;;;;;;8.90;6.68;;;;;;;21.41;46.02;101328.63;3582141;39;20659;-72
2021/07/11 11:10:25;;;;;;;8.30;6.07;;;;;;;21.40;45.84;101330.56;3583088;40;20050;-72
2021/07/11 11:13:07;;;;;;;9.10;6.40;;;;;;;21.42;44.96;101322.00;3573423;40;20055;-72
2021/07/11 11:15:39;;;;;;;8.90;5.75;;;;;;;21.39;45.20;101336.31;3567140;40;20057;-72
2021/07/11 11:18:28;;;;;;;8.05;5.70;;;;;;;21.39;45.22;101333.53;3576633;40;20059;-72
2021/07/11 11:20:59;;;;;;;7.70;4.93;;;;;;;21.38;45.23;101327.09;3575707;40;20037;-72
2021/07/11 11:23:33;;;;;;;7.60;5.57;;;;;;;21.39;44.87;101319.63;3576457;40;20134;-72
2021/07/11 11:26:03;;;;;;;6.70;5.25;;;;;;;21.38;45.54;101323.47;3576330;40;20085;-73
2021/07/11 11:28:34;;;;;;;6.22;5.07;;;;;;;21.38;44.98;101327.09;3575293;40;20318;-72
2021/07/11 11:31:12;;;;;;;6.75;4.80;;;;;;;21.36;44.48;101323.66;3574544;40;20558;-73
2021/07/11 11:33:52;;;;;;;5.50;4.40;;;;;;;21.37;44.07;101319.81;3576770;40;20564;-72
2021/07/11 11:36:22;;;;;;;5.47;4.47;;;;;;;21.36;45.17;101314.44;3576426;40;20025;-72
2021/07/11 11:38:52;;;;;;;5.63;4.35;;;;;;;21.35;44.96;101315.47;3577595;40;20056;-72
2021/07/11 11:41:22;;;;;;;5.65;3.92;;;;;;;21.37;45.37;101314.25;3582870;39;20037;-72
2021/07/11 11:43:52;;;;;;;4.65;3.33;;;;;;;21.39;44.38;101306.56;3579514;40;20089;-73
2021/07/11 11:46:26;;;;;;;4.80;3.75;;;;;;;21.42;44.27;101313.66;3577379;40;20045;-72
2021/07/11 11:48:57;;;;;;;4.45;3.38;;;;;;;21.42;44.53;101299.72;3573458;40;20095;-72
2021/07/11 11:51:27;;;;;;;4.57;3.35;;;;;;;21.44;44.38;101301.28;3580709;40;20115;-72
2021/07/11 11:53:56;;;;;;;5.07;3.40;;;;;;;21.48;44.65;101295.34;3597296;40;20165;-73
2021/07/11 11:56:25;;;;;;;5.55;3.25;;;;;;;21.51;44.67;101297.72;3575440;39;20080;-72
2021/07/11 11:59:02;;;;;;;4.43;3.30;;;;;;;21.59;44.02;101294.84;3580036;40;20053;-72
2021/07/11 12:01:32;;;;;;;4.03;2.85;;;;;;;21.60;44.14;101291.88;3577895;40;20037;-72
2021/07/11 12:04:09;;;;;;;4.50;2.83;;;;;;;21.67;43.68;101292.81;3585886;40;20044;-72